createdAt,value
2019-02-22T00:00:40.330Z,97.28
2019-02-22T00:01:40.319Z,97.38
2019-02-22T00:02:40.325Z,97.33
2019-02-22T00:03:40.295Z,97.38
2019-02-22T00:04:40.303Z,97.28
2019-02-22T00:05:40.298Z,97.38
2019-02-22T00:06:40.260Z,96.97
2019-02-22T00:07:40.258Z,97.38
2019-02-22T00:08:40.243Z,97.23
2019-02-22T00:09:49.008Z,97.28
2019-02-22T00:10:41.244Z,97.07
2019-02-22T00:11:40.240Z,97.33
2019-02-22T00:12:40.197Z,97.48
2019-02-22T00:13:40.184Z,97.33
2019-02-22T00:14:40.174Z,97.33
2019-02-22T00:15:40.165Z,97.33
2019-02-22T00:16:40.165Z,97.13
2019-02-22T00:17:40.178Z,97.48
2019-02-22T00:18:40.153Z,97.28
2019-02-22T00:19:40.122Z,97.38
2019-02-22T00:20:41.315Z,97.28
2019-02-22T00:21:40.102Z,97.33
2019-02-22T00:22:40.086Z,97.33
2019-02-22T00:23:40.112Z,97.48
2019-02-22T00:24:40.079Z,97.07
2019-02-22T00:25:40.066Z,97.54
2019-02-22T00:26:40.044Z,97.58
2019-02-22T00:27:40.033Z,97.79
2019-02-22T00:28:40.020Z,97.23
2019-02-22T00:29:40.030Z,97.85
2019-02-22T00:30:40.020Z,97.17
2019-02-22T00:31:40.000Z,97.54
2019-02-22T00:32:42.451Z,97.54
2019-02-22T00:33:39.975Z,97.48
2019-02-22T00:34:39.959Z,97.89
2019-02-22T00:35:40.015Z,98.05
2019-02-22T00:36:40.071Z,96.97
2019-02-22T00:37:39.923Z,97.23
2019-02-22T00:38:39.934Z,97.48
2019-02-22T00:39:39.901Z,97.58
2019-02-22T00:40:39.888Z,97.79
2019-02-22T00:41:39.908Z,97.79
2019-02-22T00:42:39.887Z,97.99
2019-02-22T00:43:39.855Z,97.58
2019-02-22T00:44:39.847Z,97.95
2019-02-22T00:45:39.834Z,97.07
2019-02-22T00:46:39.823Z,97.69
2019-02-22T00:47:39.851Z,97.48
2019-02-22T00:48:39.814Z,97.38
2019-02-22T00:49:39.793Z,97.58
2019-02-22T00:50:39.787Z,97.89
2019-02-22T00:51:39.769Z,97.89
2019-02-22T00:52:39.759Z,97.74
2019-02-22T00:53:39.770Z,98.30
2019-02-22T00:54:39.781Z,97.64
2019-02-22T00:55:39.727Z,98.20
2019-02-22T00:56:39.714Z,97.85
2019-02-22T00:57:39.704Z,97.38
2019-02-22T00:58:39.693Z,97.38
2019-02-22T00:59:39.696Z,97.48
2019-02-22T01:00:39.670Z,97.33
2019-02-22T01:01:39.749Z,97.64
2019-02-22T01:02:39.647Z,97.54
2019-02-22T01:03:39.640Z,97.58
2019-02-22T01:04:39.644Z,97.33
2019-02-22T01:05:39.617Z,97.79
2019-02-22T01:06:39.604Z,97.74
2019-02-22T01:07:39.630Z,97.85
2019-02-22T01:08:39.583Z,96.72
2019-02-22T01:09:39.570Z,97.44
2019-02-22T01:10:39.597Z,97.85
2019-02-22T01:11:39.549Z,97.85
2019-02-22T01:12:39.543Z,97.38
2019-02-22T01:13:39.576Z,97.33
2019-02-22T01:14:39.515Z,97.13
2019-02-22T01:15:39.523Z,97.13
2019-02-22T01:16:39.496Z,97.28
2019-02-22T01:17:39.482Z,97.38
2019-02-22T01:18:39.476Z,97.13
2019-02-22T01:19:39.500Z,97.17
2019-02-22T01:20:39.457Z,97.23
2019-02-22T01:21:39.452Z,97.33
2019-02-22T01:22:39.454Z,97.33
2019-02-22T01:23:39.416Z,97.33
2019-02-22T01:24:39.404Z,97.23
2019-02-22T01:25:39.427Z,97.33
2019-02-22T01:26:39.382Z,97.33
2019-02-22T01:27:39.389Z,97.33
2019-02-22T01:28:39.365Z,97.33
2019-02-22T01:29:39.357Z,97.03
2019-02-22T01:30:39.391Z,97.23
2019-02-22T01:31:39.351Z,97.38
2019-02-22T01:32:39.416Z,97.33
2019-02-22T01:33:39.309Z,97.33
2019-02-22T01:34:39.295Z,96.97
2019-02-22T01:35:39.291Z,97.33
2019-02-22T01:36:39.276Z,97.33
2019-02-22T01:37:39.294Z,97.54
2019-02-22T01:38:39.268Z,97.38
2019-02-22T01:39:39.244Z,97.13
2019-02-22T01:40:43.601Z,97.85
2019-02-22T01:41:39.222Z,97.85
2019-02-22T01:42:39.207Z,97.74
2019-02-22T01:43:39.258Z,97.23
2019-02-22T01:44:39.207Z,97.23
2019-02-22T01:45:39.181Z,97.64
2019-02-22T01:46:39.179Z,97.54
2019-02-22T01:47:39.157Z,97.54
2019-02-22T01:48:39.143Z,97.54
2019-02-22T01:49:39.173Z,97.64
2019-02-22T01:50:39.142Z,97.54
2019-02-22T01:51:39.110Z,97.48
2019-02-22T01:52:39.099Z,97.28
2019-02-22T01:53:39.094Z,97.13
2019-02-22T01:54:39.079Z,97.38
2019-02-22T01:55:39.116Z,97.13
2019-02-22T01:56:39.061Z,97.79
2019-02-22T01:57:39.046Z,97.69
2019-02-22T01:58:48.407Z,97.89
2019-02-22T01:59:40.021Z,97.17
2019-02-22T02:00:39.011Z,97.69
2019-02-22T02:01:39.035Z,96.87
2019-02-22T02:02:39.015Z,96.92
2019-02-22T02:03:38.986Z,97.03
2019-02-22T02:04:38.994Z,96.97
2019-02-22T02:05:38.958Z,97.89
2019-02-22T02:06:38.945Z,97.03
2019-02-22T02:07:38.957Z,96.92
2019-02-22T02:08:38.934Z,96.92
2019-02-22T02:09:38.923Z,97.95
2019-02-22T02:10:38.901Z,96.92
2019-02-22T02:11:38.890Z,97.64
2019-02-22T02:12:38.882Z,97.74
2019-02-22T02:13:38.922Z,97.38
2019-02-22T02:14:38.859Z,97.85
2019-02-22T02:15:38.847Z,97.44
2019-02-22T02:16:38.845Z,97.48
2019-02-22T02:17:38.831Z,97.89
2019-02-22T02:18:38.818Z,97.89
2019-02-22T02:19:38.857Z,97.89
2019-02-22T02:20:38.797Z,97.69
2019-02-22T02:21:38.782Z,97.69
2019-02-22T02:22:38.783Z,96.97
2019-02-22T02:23:38.757Z,97.07
2019-02-22T02:24:38.749Z,97.58
2019-02-22T02:25:38.785Z,97.58
2019-02-22T02:26:38.726Z,97.58
2019-02-22T02:27:38.716Z,97.79
2019-02-22T02:28:38.710Z,97.79
2019-02-22T02:29:38.693Z,97.89
2019-02-22T02:30:38.684Z,97.79
2019-02-22T02:31:38.729Z,98.20
2019-02-22T02:32:38.664Z,98.20
2019-02-22T02:33:38.649Z,98.30
2019-02-22T02:34:46.345Z,98.30
2019-02-22T02:35:38.692Z,97.89
2019-02-22T02:36:38.683Z,97.99
2019-02-22T02:37:38.670Z,98.20
2019-02-22T02:38:38.641Z,98.20
2019-02-22T02:39:38.668Z,98.20
2019-02-22T02:40:38.628Z,97.79
2019-02-22T02:41:38.720Z,98.20
2019-02-22T02:42:38.574Z,97.83
2019-02-22T02:43:38.595Z,97.69
2019-02-22T02:44:38.532Z,97.38
2019-02-22T02:45:38.521Z,97.79
2019-02-22T02:46:38.529Z,97.79
2019-02-22T02:47:38.550Z,97.69
2019-02-22T02:48:38.506Z,97.79
2019-02-22T02:49:38.475Z,97.79
2019-02-22T02:50:38.464Z,97.69
2019-02-22T02:51:38.469Z,97.69
2019-02-22T02:52:38.466Z,97.89
2019-02-22T02:53:38.435Z,97.69
2019-02-22T02:54:38.441Z,97.89
2019-02-22T02:55:38.412Z,97.89
2019-02-22T02:56:38.397Z,98.20
2019-02-22T02:57:38.389Z,98.30
2019-02-22T02:58:38.422Z,98.20
2019-02-22T02:59:38.376Z,97.89
2019-02-22T03:00:38.356Z,97.99
2019-02-22T03:01:38.346Z,98.30
2019-02-22T03:02:38.339Z,97.89
2019-02-22T03:03:38.345Z,98.20
2019-02-22T03:04:38.313Z,98.30
2019-02-22T03:05:38.317Z,98.30
2019-02-22T03:06:38.291Z,98.20
2019-02-22T03:07:38.294Z,97.79
2019-02-22T03:08:38.270Z,97.89
2019-02-22T03:09:38.277Z,97.79
2019-02-22T03:10:38.244Z,97.79
2019-02-22T03:11:38.239Z,97.79
2019-02-22T03:12:38.221Z,97.79
2019-02-22T03:13:38.243Z,97.99
2019-02-22T03:14:38.201Z,98.30
2019-02-22T03:15:38.208Z,97.79
2019-02-22T03:16:38.184Z,97.99
2019-02-22T03:17:38.170Z,97.79
2019-02-22T03:18:38.158Z,97.79
2019-02-22T03:19:38.167Z,97.89
2019-02-22T03:20:38.149Z,97.89
2019-02-22T03:21:38.138Z,97.79
2019-02-22T03:22:38.115Z,97.79
2019-02-22T03:23:38.104Z,97.79
2019-02-22T03:24:38.093Z,97.79
2019-02-22T03:25:38.119Z,98.20
2019-02-22T03:26:38.099Z,98.20
2019-02-22T03:27:38.091Z,97.89
2019-02-22T03:28:38.068Z,97.89
2019-02-22T03:29:38.051Z,97.79
2019-02-22T03:30:38.033Z,97.79
2019-02-22T03:31:38.025Z,98.20
2019-02-22T03:32:38.021Z,98.20
2019-02-22T03:33:38.022Z,97.79
2019-02-22T03:34:38.016Z,97.79
2019-02-22T03:35:37.971Z,97.79
2019-02-22T03:36:37.963Z,97.89
2019-02-22T03:37:37.951Z,97.79
2019-02-22T03:38:37.945Z,97.79
2019-02-22T03:39:37.978Z,97.79
2019-02-22T03:40:37.938Z,97.79
2019-02-22T03:41:37.904Z,97.79
2019-02-22T03:42:37.895Z,97.79
2019-02-22T03:43:37.912Z,97.89
2019-02-22T03:44:37.872Z,97.69
2019-02-22T03:45:37.874Z,98.20
2019-02-22T03:46:37.854Z,98.20
2019-02-22T03:47:37.841Z,98.20
2019-02-22T03:48:37.834Z,97.79
2019-02-22T03:49:37.838Z,98.20
2019-02-22T03:50:37.807Z,97.99
2019-02-22T03:51:37.829Z,98.10
2019-02-22T03:52:37.788Z,97.99
2019-02-22T03:53:37.777Z,98.10
2019-02-22T03:54:37.770Z,98.30
2019-02-22T03:55:37.775Z,97.79
2019-02-22T03:56:37.741Z,97.79
2019-02-22T03:57:37.748Z,97.69
2019-02-22T03:58:37.732Z,97.79
2019-02-22T03:59:37.712Z,97.58
2019-02-22T04:00:37.697Z,97.69
2019-02-22T04:01:37.712Z,97.89
2019-02-22T04:02:37.681Z,98.10
2019-02-22T04:03:37.713Z,97.79
2019-02-22T04:04:37.681Z,98.04
2019-02-22T04:05:37.644Z,97.99
2019-02-22T04:06:37.631Z,98.30
2019-02-22T04:07:37.626Z,98.04
2019-02-22T04:08:37.645Z,98.20
2019-02-22T04:09:37.596Z,97.94
2019-02-22T04:10:37.608Z,97.89
2019-02-22T04:11:45.592Z,97.69
2019-02-22T04:12:38.565Z,97.38
2019-02-22T04:13:37.571Z,97.99
2019-02-22T04:14:37.575Z,97.48
2019-02-22T04:15:37.534Z,98.04
2019-02-22T04:16:37.536Z,97.69
2019-02-22T04:17:37.515Z,97.58
2019-02-22T04:18:37.503Z,97.58
2019-02-22T04:19:37.514Z,97.89
2019-02-22T04:20:37.479Z,97.69
2019-02-22T04:21:37.486Z,97.69
2019-02-22T04:22:37.458Z,97.58
2019-02-22T04:23:37.446Z,97.69
2019-02-22T04:24:37.436Z,97.89
2019-02-22T04:25:37.443Z,98.10
2019-02-22T04:26:37.413Z,97.53
2019-02-22T04:27:37.420Z,97.38
2019-02-22T04:28:37.404Z,97.38
2019-02-22T04:29:37.380Z,97.69
2019-02-22T04:30:38.123Z,97.48
2019-02-22T04:31:37.368Z,97.38
2019-02-22T04:32:37.381Z,97.38
2019-02-22T04:33:37.347Z,97.38
2019-02-22T04:34:37.323Z,97.89
2019-02-22T04:35:37.313Z,97.79
2019-02-22T04:36:37.302Z,97.69
2019-02-22T04:37:37.291Z,98.10
2019-02-22T04:38:37.317Z,97.69
2019-02-22T04:39:37.271Z,97.89
2019-02-22T04:40:37.265Z,97.58
2019-02-22T04:41:37.253Z,97.48
2019-02-22T04:42:37.236Z,97.79
2019-02-22T04:43:37.244Z,97.79
2019-02-22T04:44:37.241Z,97.69
2019-02-22T04:45:37.204Z,97.79
2019-02-22T04:46:37.192Z,97.79
2019-02-22T04:47:37.180Z,97.89
2019-02-22T04:48:37.170Z,97.89
2019-02-22T04:49:37.184Z,97.99
2019-02-22T04:50:37.196Z,97.69
2019-02-22T04:51:37.141Z,97.79
2019-02-22T04:52:37.127Z,97.69
2019-02-22T04:53:37.115Z,97.89
2019-02-22T04:54:37.105Z,98.45
2019-02-22T04:55:37.118Z,98.20
2019-02-22T04:56:37.110Z,98.20
2019-02-22T04:57:37.073Z,98.10
2019-02-22T04:58:37.062Z,98.30
2019-02-22T04:59:37.056Z,98.30
2019-02-22T05:00:37.043Z,97.99
2019-02-22T05:01:37.053Z,98.20
2019-02-22T05:02:37.055Z,97.89
2019-02-22T05:03:37.006Z,97.69
2019-02-22T05:04:36.994Z,97.79
2019-02-22T05:05:36.990Z,97.89
2019-02-22T05:06:36.975Z,97.79
2019-02-22T05:07:36.977Z,97.79
2019-02-22T05:08:36.970Z,98.20
2019-02-22T05:09:36.939Z,97.79
2019-02-22T05:10:36.960Z,97.79
2019-02-22T05:11:36.921Z,97.79
2019-02-22T05:12:36.927Z,97.79
2019-02-22T05:13:36.894Z,97.79
2019-02-22T05:14:36.925Z,97.89
2019-02-22T05:15:36.871Z,97.79
2019-02-22T05:16:36.864Z,97.83
2019-02-22T05:17:36.852Z,97.79
2019-02-22T05:18:36.862Z,97.69
2019-02-22T05:19:36.827Z,97.58
2019-02-22T05:20:36.867Z,97.58
2019-02-22T05:21:36.825Z,97.58
2019-02-22T05:22:36.793Z,97.79
2019-02-22T05:23:36.810Z,97.79
2019-02-22T05:24:36.775Z,97.38
2019-02-22T05:25:36.765Z,97.58
2019-02-22T05:26:36.761Z,97.28
2019-02-22T05:27:36.766Z,97.48
2019-02-22T05:28:36.729Z,97.38
2019-02-22T05:29:36.730Z,97.53
2019-02-22T05:30:36.725Z,97.38
2019-02-22T05:31:36.715Z,97.28
2019-02-22T05:32:36.688Z,97.28
2019-02-22T05:33:36.768Z,97.28
2019-02-22T05:34:36.678Z,97.17
2019-02-22T05:35:36.649Z,97.28
2019-02-22T05:36:36.661Z,97.58
2019-02-22T05:37:36.629Z,97.48
2019-02-22T05:38:36.619Z,97.48
2019-02-22T05:39:36.662Z,97.17
2019-02-22T05:40:36.596Z,97.38
2019-02-22T05:41:36.594Z,97.17
2019-02-22T05:42:36.633Z,97.28
2019-02-22T05:43:36.563Z,97.17
2019-02-22T05:44:36.558Z,97.58
2019-02-22T05:45:36.544Z,97.22
2019-02-22T05:46:36.577Z,97.32
2019-02-22T05:47:36.529Z,97.28
2019-02-22T05:48:38.788Z,97.17
2019-02-22T05:49:36.503Z,97.58
2019-02-22T05:50:36.487Z,97.58
2019-02-22T05:51:36.509Z,97.17
2019-02-22T05:52:36.476Z,97.69
2019-02-22T05:53:36.455Z,97.48
2019-02-22T05:54:36.465Z,97.69
2019-02-22T05:55:36.431Z,97.58
2019-02-22T05:56:36.425Z,97.17
2019-02-22T05:57:36.425Z,97.58
2019-02-22T05:58:36.446Z,97.89
2019-02-22T05:59:36.444Z,97.89
2019-02-22T06:00:36.375Z,97.79
2019-02-22T06:01:36.373Z,97.79
2019-02-22T06:02:36.354Z,97.89
2019-02-22T06:03:36.361Z,97.79
2019-02-22T06:04:36.372Z,97.79
2019-02-22T06:05:36.333Z,97.58
2019-02-22T06:06:36.315Z,97.28
2019-02-22T06:07:36.295Z,97.63
2019-02-22T06:08:36.287Z,97.38
2019-02-22T06:09:36.296Z,97.28
2019-02-22T06:10:36.282Z,97.38
2019-02-22T06:11:36.265Z,97.69
2019-02-22T06:12:36.241Z,97.58
2019-02-22T06:13:36.242Z,97.48
2019-02-22T06:14:36.230Z,98.10
2019-02-22T06:15:36.220Z,97.58
2019-02-22T06:16:36.229Z,97.58
2019-02-22T06:17:36.188Z,97.28
2019-02-22T06:18:36.180Z,97.48
2019-02-22T06:19:36.166Z,97.32
2019-02-22T06:20:36.170Z,97.79
2019-02-22T06:21:36.145Z,97.89
2019-02-22T06:22:36.176Z,97.79
2019-02-22T06:23:36.121Z,98.20
2019-02-22T06:24:36.107Z,97.99
2019-02-22T06:25:36.100Z,98.10
2019-02-22T06:26:36.105Z,98.10
2019-02-22T06:27:36.081Z,98.30
2019-02-22T06:28:36.089Z,98.30
2019-02-22T06:29:36.059Z,98.30
2019-02-22T06:30:36.047Z,98.45
2019-02-22T06:31:36.032Z,98.25
2019-02-22T06:32:36.038Z,98.20
2019-02-22T06:33:36.015Z,98.35
2019-02-22T06:34:36.024Z,98.20
2019-02-22T06:35:35.990Z,98.25
2019-02-22T06:36:35.980Z,97.48
2019-02-22T06:37:35.983Z,97.83
2019-02-22T06:38:35.994Z,97.79
2019-02-22T06:39:35.947Z,97.48
2019-02-22T06:40:35.992Z,97.89
2019-02-22T06:41:35.921Z,97.89
2019-02-22T06:42:45.226Z,97.69
2019-02-22T06:43:36.915Z,97.69
2019-02-22T06:44:35.892Z,97.69
2019-02-22T06:45:35.878Z,97.48
2019-02-22T06:46:35.886Z,97.79
2019-02-22T06:47:35.859Z,97.94
2019-02-22T06:48:35.860Z,97.79
2019-02-22T06:49:35.852Z,98.20
2019-02-22T06:50:35.826Z,98.25
2019-02-22T06:51:35.817Z,98.20
2019-02-22T06:52:35.833Z,98.30
2019-02-22T06:53:35.793Z,98.20
2019-02-22T06:54:35.803Z,98.30
2019-02-22T06:55:35.770Z,98.10
2019-02-22T06:56:35.760Z,97.89
2019-02-22T06:57:35.751Z,97.89
2019-02-22T06:58:35.813Z,98.10
2019-02-22T06:59:35.728Z,97.89
2019-02-22T07:00:35.730Z,97.89
2019-02-22T07:01:35.704Z,97.99
2019-02-22T07:02:35.694Z,98.30
2019-02-22T07:03:35.716Z,97.99
2019-02-22T07:04:35.672Z,97.99
2019-02-22T07:05:35.705Z,98.30
2019-02-22T07:06:35.666Z,98.20
2019-02-22T07:07:35.663Z,97.79
2019-02-22T07:08:35.627Z,98.20
2019-02-22T07:09:35.614Z,97.89
2019-02-22T07:10:35.608Z,97.79
2019-02-22T07:11:37.758Z,98.20
2019-02-22T07:12:35.605Z,98.20
2019-02-22T07:13:35.578Z,97.89
2019-02-22T07:14:35.562Z,97.79
2019-02-22T07:15:35.551Z,97.69
2019-02-22T07:16:35.541Z,97.79
2019-02-22T07:17:35.579Z,97.79
2019-02-22T07:18:35.537Z,97.79
2019-02-22T07:19:35.507Z,98.10
2019-02-22T07:20:35.506Z,97.79
2019-02-22T07:21:44.047Z,97.89
2019-02-22T07:22:36.475Z,97.79
2019-02-22T07:23:35.507Z,97.79
2019-02-22T07:24:35.468Z,97.79
2019-02-22T07:25:35.445Z,97.89
2019-02-22T07:26:35.441Z,98.20
2019-02-22T07:27:35.421Z,97.99
2019-02-22T07:28:35.408Z,98.10
2019-02-22T07:29:35.414Z,98.20
2019-02-22T07:30:35.431Z,98.20
2019-02-22T07:31:35.375Z,98.20
2019-02-22T07:32:35.369Z,98.30
2019-02-22T07:33:35.353Z,98.30
2019-02-22T07:34:35.341Z,98.10
2019-02-22T07:35:35.355Z,98.30
2019-02-22T07:36:35.352Z,98.20
2019-02-22T07:37:35.315Z,98.20
2019-02-22T07:38:35.299Z,97.89
2019-02-22T07:39:35.287Z,97.85
2019-02-22T07:40:35.284Z,98.10
2019-02-22T07:41:35.290Z,98.30
2019-02-22T07:42:35.254Z,97.58
2019-02-22T07:43:35.310Z,98.20
2019-02-22T07:44:35.232Z,97.99
2019-02-22T07:45:35.228Z,98.10
2019-02-22T07:46:35.214Z,97.85
2019-02-22T07:47:35.210Z,98.10
2019-02-22T07:48:35.186Z,97.89
2019-02-22T07:49:35.225Z,98.20
2019-02-22T07:50:35.254Z,97.69
2019-02-22T07:51:35.154Z,97.89
2019-02-22T07:52:35.161Z,97.74
2019-02-22T07:53:35.137Z,97.33
2019-02-22T07:54:35.141Z,97.95
2019-02-22T07:55:35.152Z,97.85
2019-02-22T07:56:35.100Z,97.64
2019-02-22T07:57:35.089Z,98.05
2019-02-22T07:58:35.102Z,98.05
2019-02-22T07:59:35.066Z,97.33
2019-02-22T08:00:35.058Z,97.95
2019-02-22T08:01:46.578Z,97.74
2019-02-22T08:02:36.031Z,97.58
2019-02-22T08:03:37.332Z,97.74
2019-02-22T08:04:35.028Z,97.54
2019-02-22T08:05:35.002Z,97.64
2019-02-22T08:06:34.993Z,97.44
2019-02-22T08:07:35.005Z,97.74
2019-02-22T08:08:34.970Z,97.74
2019-02-22T08:09:34.958Z,97.44
2019-02-22T08:10:34.974Z,97.85
2019-02-22T08:11:34.939Z,97.74
2019-02-22T08:12:34.928Z,97.85
2019-02-22T08:13:34.957Z,97.95
2019-02-22T08:14:34.902Z,97.85
2019-02-22T08:15:35.485Z,97.54
2019-02-22T08:16:34.896Z,97.64
2019-02-22T08:17:34.874Z,97.64
2019-02-22T08:18:34.866Z,97.44
2019-02-22T08:19:34.902Z,98.16
2019-02-22T08:20:34.835Z,98.16
2019-02-22T08:21:34.840Z,97.44
2019-02-22T08:22:34.836Z,97.64
2019-02-22T08:23:34.821Z,98.25
2019-02-22T08:24:34.803Z,97.95
2019-02-22T08:25:34.834Z,97.54
2019-02-22T08:26:34.771Z,97.74
2019-02-22T08:27:34.761Z,97.54
2019-02-22T08:28:34.754Z,98.16
2019-02-22T08:29:35.045Z,98.25
2019-02-22T08:30:34.753Z,98.05
2019-02-22T08:31:34.718Z,97.85
2019-02-22T08:32:34.818Z,98.25
2019-02-22T08:33:34.742Z,97.74
2019-02-22T08:34:34.701Z,98.16
2019-02-22T08:35:42.224Z,98.16
2019-02-22T08:36:34.656Z,97.80
2019-02-22T08:37:34.644Z,98.00
2019-02-22T08:38:34.641Z,97.91
2019-02-22T08:39:34.625Z,98.11
2019-02-22T08:40:34.626Z,97.80
2019-02-22T08:41:34.615Z,97.49
2019-02-22T08:42:34.601Z,97.49
2019-02-22T08:43:34.582Z,97.60
2019-02-22T08:44:34.619Z,97.08
2019-02-22T08:45:34.558Z,97.39
2019-02-22T08:46:34.568Z,97.19
2019-02-22T08:47:34.549Z,97.24
2019-02-22T08:48:34.524Z,97.45
2019-02-22T08:49:34.511Z,97.29
2019-02-22T08:50:34.502Z,96.94
2019-02-22T08:51:34.493Z,96.88
2019-02-22T08:52:34.534Z,97.65
2019-02-22T08:53:34.474Z,96.94
2019-02-22T08:54:34.546Z,96.83
2019-02-22T08:55:36.601Z,97.75
2019-02-22T08:56:34.435Z,97.45
2019-02-22T08:57:34.423Z,97.14
2019-02-22T08:58:34.429Z,97.04
2019-02-22T08:59:34.404Z,97.24
2019-02-22T09:00:34.416Z,97.14
2019-02-22T09:01:35.711Z,97.34
2019-02-22T09:02:34.371Z,97.45
2019-02-22T09:03:34.380Z,96.32
2019-02-22T09:04:34.347Z,96.32
2019-02-22T09:05:34.336Z,96.22
2019-02-22T09:06:34.324Z,96.42
2019-02-22T09:07:34.333Z,96.07
2019-02-22T09:08:34.301Z,96.12
2019-02-22T09:09:34.308Z,96.12
2019-02-22T09:10:34.281Z,96.22
2019-02-22T09:11:34.272Z,96.01
2019-02-22T09:12:34.257Z,96.28
2019-02-22T09:13:43.087Z,95.76
2019-02-22T09:14:35.259Z,96.28
2019-02-22T09:15:34.228Z,96.38
2019-02-22T09:16:34.215Z,95.87
2019-02-22T09:17:34.202Z,96.17
2019-02-22T09:18:34.195Z,96.07
2019-02-22T09:19:34.189Z,96.17
2019-02-22T09:20:34.187Z,96.17
2019-02-22T09:21:34.162Z,96.17
2019-02-22T09:22:34.151Z,96.13
2019-02-22T09:23:34.138Z,96.07
2019-02-22T09:24:34.126Z,95.92
2019-02-22T09:25:34.136Z,96.38
2019-02-22T09:26:34.127Z,96.28
2019-02-22T09:27:34.096Z,96.28
2019-02-22T09:28:34.084Z,95.82
2019-02-22T09:29:34.073Z,95.82
2019-02-22T09:30:34.058Z,96.13
2019-02-22T09:31:34.075Z,96.23
2019-02-22T09:32:34.054Z,96.13
2019-02-22T09:33:34.027Z,95.62
2019-02-22T09:34:34.018Z,95.72
2019-02-22T09:35:34.891Z,95.82
2019-02-22T09:36:33.995Z,95.92
2019-02-22T09:37:33.990Z,95.62
2019-02-22T09:38:33.982Z,95.21
2019-02-22T09:39:33.961Z,95.41
2019-02-22T09:40:33.949Z,95.82
2019-02-22T09:41:33.938Z,96.03
2019-02-22T09:42:33.925Z,95.82
2019-02-22T09:43:33.946Z,95.72
2019-02-22T09:44:33.902Z,95.78
2019-02-22T09:45:33.896Z,95.17
2019-02-22T09:46:33.881Z,95.26
2019-02-22T09:47:33.868Z,95.17
2019-02-22T09:48:33.857Z,94.49
2019-02-22T09:49:33.871Z,94.55
2019-02-22T09:50:33.841Z,95.37
2019-02-22T09:51:33.824Z,95.00
2019-02-22T09:52:33.815Z,94.70
2019-02-22T09:53:33.807Z,94.80
2019-02-22T09:54:33.791Z,94.75
2019-02-22T09:55:33.809Z,94.59
2019-02-22T09:56:33.769Z,94.80
2019-02-22T09:57:33.758Z,94.85
2019-02-22T09:58:33.747Z,95.31
2019-02-22T09:59:33.738Z,95.62
2019-02-22T10:00:33.740Z,94.90
2019-02-22T10:01:33.738Z,94.08
2019-02-22T10:02:33.701Z,94.18
2019-02-22T10:03:33.692Z,93.77
2019-02-22T10:04:33.686Z,94.18
2019-02-22T10:05:33.667Z,94.65
2019-02-22T10:06:33.671Z,94.45
2019-02-22T10:07:33.652Z,94.04
2019-02-22T10:08:33.638Z,93.88
2019-02-22T10:09:33.629Z,93.57
2019-02-22T10:10:33.614Z,92.75
2019-02-22T10:11:33.602Z,93.73
2019-02-22T10:12:33.601Z,93.73
2019-02-22T10:13:33.603Z,93.73
2019-02-22T10:14:33.571Z,93.63
2019-02-22T10:15:33.557Z,92.71
2019-02-22T10:16:33.547Z,92.91
2019-02-22T10:17:33.536Z,92.81
2019-02-22T10:18:33.546Z,93.22
2019-02-22T10:19:33.537Z,92.81
2019-02-22T10:20:33.502Z,91.99
2019-02-22T10:21:33.491Z,91.99
2019-02-22T10:22:33.479Z,91.99
2019-02-22T10:23:33.468Z,92.30
2019-02-22T10:24:33.470Z,91.89
2019-02-22T10:25:33.465Z,92.10
2019-02-22T10:26:33.446Z,92.56
2019-02-22T10:27:33.425Z,91.74
2019-02-22T10:28:33.411Z,91.64
2019-02-22T10:29:33.401Z,91.95
2019-02-22T10:30:33.403Z,92.25
2019-02-22T10:31:33.386Z,91.95
2019-02-22T10:32:33.378Z,91.74
2019-02-22T10:33:36.739Z,90.62
2019-02-22T10:34:33.346Z,91.03
2019-02-22T10:35:33.333Z,90.92
2019-02-22T10:36:42.285Z,92.15
2019-02-22T10:37:34.314Z,90.41
2019-02-22T10:38:35.830Z,90.72
2019-02-22T10:39:33.309Z,90.92
2019-02-22T10:40:33.279Z,91.50
2019-02-22T10:41:33.267Z,91.80
2019-02-22T10:42:33.257Z,91.70
2019-02-22T10:43:33.263Z,91.80
2019-02-22T10:44:33.232Z,92.11
2019-02-22T10:45:33.240Z,91.25
2019-02-22T10:46:33.215Z,91.66
2019-02-22T10:47:33.199Z,91.86
2019-02-22T10:48:33.188Z,91.66
2019-02-22T10:49:33.186Z,90.33
2019-02-22T10:50:33.174Z,90.23
2019-02-22T10:51:34.203Z,90.43
2019-02-22T10:52:33.145Z,89.72
2019-02-22T10:53:33.133Z,89.25
2019-02-22T10:54:33.124Z,88.84
2019-02-22T10:55:33.110Z,89.20
2019-02-22T10:56:33.100Z,89.56
2019-02-22T10:57:33.111Z,88.64
2019-02-22T10:58:33.181Z,88.74
2019-02-22T10:59:33.068Z,87.26
2019-02-22T11:00:33.058Z,87.57
2019-02-22T11:01:33.043Z,89.00
2019-02-22T11:02:33.106Z,88.39
2019-02-22T11:03:33.045Z,87.98
2019-02-22T11:04:33.011Z,88.49
2019-02-22T11:05:33.024Z,88.39
2019-02-22T11:06:32.987Z,88.79
2019-02-22T11:07:32.978Z,88.49
2019-02-22T11:08:32.966Z,88.85
2019-02-22T11:09:33.002Z,88.85
2019-02-22T11:10:32.958Z,87.32
2019-02-22T11:11:32.939Z,87.79
2019-02-22T11:12:32.922Z,88.82
2019-02-22T11:13:32.912Z,86.83
2019-02-22T11:14:32.901Z,87.14
2019-02-22T11:15:32.933Z,85.92
2019-02-22T11:16:32.876Z,86.47
2019-02-22T11:17:32.879Z,85.82
2019-02-22T11:18:32.857Z,86.73
2019-02-22T11:19:32.844Z,86.12
2019-02-22T11:20:32.851Z,86.53
2019-02-22T11:21:32.829Z,86.73
2019-02-22T11:22:32.813Z,85.92
2019-02-22T11:23:32.798Z,84.90
2019-02-22T11:24:32.792Z,85.51
2019-02-22T11:25:32.779Z,85.82
2019-02-22T11:26:32.784Z,84.28
2019-02-22T11:27:32.757Z,84.18
2019-02-22T11:28:32.745Z,85.30
2019-02-22T11:29:32.732Z,84.80
2019-02-22T11:30:32.722Z,84.49
2019-02-22T11:31:32.712Z,84.18
2019-02-22T11:32:32.711Z,84.80
2019-02-22T11:33:32.693Z,83.84
2019-02-22T11:34:32.678Z,83.43
2019-02-22T11:35:32.670Z,82.98
2019-02-22T11:36:32.655Z,81.31
2019-02-22T11:37:32.660Z,81.27
2019-02-22T11:38:32.645Z,82.50
2019-02-22T11:39:32.622Z,82.60
2019-02-22T11:40:33.645Z,80.77
2019-02-22T11:41:32.599Z,79.38
2019-02-22T11:42:32.591Z,80.23
2019-02-22T11:43:32.599Z,81.25
2019-02-22T11:44:39.826Z,82.64
2019-02-22T11:45:33.554Z,82.27
2019-02-22T11:46:32.545Z,84.27
2019-02-22T11:47:32.535Z,85.69
2019-02-22T11:48:32.522Z,83.70
2019-02-22T11:49:32.526Z,84.61
2019-02-22T11:50:32.510Z,85.22
2019-02-22T11:51:32.492Z,85.33
2019-02-22T11:52:32.482Z,84.61
2019-02-22T11:53:32.473Z,84.25
2019-02-22T11:54:32.479Z,83.33
2019-02-22T11:55:32.445Z,82.61
2019-02-22T11:56:32.444Z,81.43
2019-02-22T11:57:32.433Z,82.14
2019-02-22T11:58:32.416Z,82.35
2019-02-22T11:59:32.406Z,83.06
2019-02-22T12:00:32.401Z,84.39
2019-02-22T12:01:32.379Z,83.81
2019-02-22T12:02:32.368Z,84.63
2019-02-22T12:03:32.367Z,85.35
2019-02-22T12:04:32.356Z,84.90
2019-02-22T12:05:32.350Z,85.04
2019-02-22T12:06:32.326Z,86.22
2019-02-22T12:07:32.326Z,85.41
2019-02-22T12:08:32.314Z,84.74
2019-02-22T12:09:32.302Z,84.01
2019-02-22T12:10:32.297Z,84.12
2019-02-22T12:11:32.283Z,84.42
2019-02-22T12:12:32.274Z,83.81
2019-02-22T12:13:32.495Z,84.74
2019-02-22T12:14:32.237Z,84.69
2019-02-22T12:15:32.228Z,84.59
2019-02-22T12:16:32.214Z,84.08
2019-02-22T12:17:32.204Z,84.69
2019-02-22T12:18:32.209Z,84.08
2019-02-22T12:19:32.203Z,81.53
2019-02-22T12:20:32.173Z,78.84
2019-02-22T12:21:32.161Z,78.53
2019-02-22T12:22:32.147Z,79.28
2019-02-22T12:23:32.137Z,78.67
2019-02-22T12:24:32.126Z,78.94
2019-02-22T12:25:32.141Z,79.04
2019-02-22T12:26:32.206Z,78.94
2019-02-22T12:27:32.097Z,81.15
2019-02-22T12:28:32.082Z,81.35
2019-02-22T12:29:32.072Z,80.94
2019-02-22T12:30:32.082Z,81.96
2019-02-22T12:31:32.057Z,82.27
2019-02-22T12:32:32.039Z,82.98
2019-02-22T12:33:32.027Z,80.54
2019-02-22T12:34:32.014Z,79.72
2019-02-22T12:35:32.004Z,80.07
2019-02-22T12:36:32.006Z,78.02
2019-02-22T12:37:31.985Z,78.94
2019-02-22T12:38:31.984Z,79.75
2019-02-22T12:39:31.965Z,79.45
2019-02-22T12:40:31.959Z,77.21
2019-02-22T12:41:31.955Z,77.75
2019-02-22T12:42:31.929Z,77.86
2019-02-22T12:43:31.919Z,79.08
2019-02-22T12:44:31.922Z,81.12
2019-02-22T12:45:31.912Z,82.86
2019-02-22T12:46:31.883Z,82.14
2019-02-22T12:47:31.886Z,82.18
2019-02-22T12:48:31.874Z,83.20
2019-02-22T12:49:31.850Z,83.51
2019-02-22T12:50:31.854Z,83.71
2019-02-22T12:51:31.827Z,83.71
2019-02-22T12:52:31.820Z,84.18